sensor_id;sensor_type;location;lat;lon;timestamp;temperature;humidity
17148;DHT22;8689;47.364;8.796;2023-06-26T00:02:09;17.90;81.00
17148;DHT22;8689;47.364;8.796;2023-06-26T00:04:36;17.90;81.10
17148;DHT22;8689;47.364;8.796;2023-06-26T00:07:04;17.90;81.10
17148;DHT22;8689;47.364;8.796;2023-06-26T00:09:33;17.90;81.20
17148;DHT22;8689;47.364;8.796;2023-06-26T00:12:01;17.90;81.30
17148;DHT22;8689;47.364;8.796;2023-06-26T00:14:30;17.90;81.80
17148;DHT22;8689;47.364;8.796;2023-06-26T00:16:58;17.80;81.70
17148;DHT22;8689;47.364;8.796;2023-06-26T00:19:26;17.80;81.70
17148;DHT22;8689;47.364;8.796;2023-06-26T00:21:53;17.90;82.30
17148;DHT22;8689;47.364;8.796;2023-06-26T00:24:21;17.90;82.00
17148;DHT22;8689;47.364;8.796;2023-06-26T00:26:50;17.90;81.90
17148;DHT22;8689;47.364;8.796;2023-06-26T00:29:18;18.00;81.90
17148;DHT22;8689;47.364;8.796;2023-06-26T00:31:46;18.10;82.00
17148;DHT22;8689;47.364;8.796;2023-06-26T00:34:13;18.10;81.40
17148;DHT22;8689;47.364;8.796;2023-06-26T00:36:41;18.10;81.90
17148;DHT22;8689;47.364;8.796;2023-06-26T00:39:10;18.20;82.00
17148;DHT22;8689;47.364;8.796;2023-06-26T00:41:38;18.20;82.00
17148;DHT22;8689;47.364;8.796;2023-06-26T00:44:08;18.40;81.50
17148;DHT22;8689;47.364;8.796;2023-06-26T00:46:36;18.40;80.90
17148;DHT22;8689;47.364;8.796;2023-06-26T00:49:04;18.50;81.40
17148;DHT22;8689;47.364;8.796;2023-06-26T00:51:32;18.60;81.30
17148;DHT22;8689;47.364;8.796;2023-06-26T00:54:00;18.60;81.40
17148;DHT22;8689;47.364;8.796;2023-06-26T00:56:28;18.60;81.00
17148;DHT22;8689;47.364;8.796;2023-06-26T00:58:57;18.60;81.80
17148;DHT22;8689;47.364;8.796;2023-06-26T01:01:26;18.60;81.80
17148;DHT22;8689;47.364;8.796;2023-06-26T01:03:53;18.60;81.60
17148;DHT22;8689;47.364;8.796;2023-06-26T01:06:24;18.60;81.00
17148;DHT22;8689;47.364;8.796;2023-06-26T01:08:55;18.70;81.40
17148;DHT22;8689;47.364;8.796;2023-06-26T01:11:22;18.80;81.90
17148;DHT22;8689;47.364;8.796;2023-06-26T01:13:51;18.70;82.20
17148;DHT22;8689;47.364;8.796;2023-06-26T01:16:20;18.70;81.80
17148;DHT22;8689;47.364;8.796;2023-06-26T01:18:50;18.60;82.00
17148;DHT22;8689;47.364;8.796;2023-06-26T01:21:18;18.60;82.00
17148;DHT22;8689;47.364;8.796;2023-06-26T01:24:03;18.50;82.80
17148;DHT22;8689;47.364;8.796;2023-06-26T01:26:35;18.40;83.80
17148;DHT22;8689;47.364;8.796;2023-06-26T01:29:07;18.20;83.80
17148;DHT22;8689;47.364;8.796;2023-06-26T01:31:36;18.10;84.40
17148;DHT22;8689;47.364;8.796;2023-06-26T01:34:04;18.00;84.90
17148;DHT22;8689;47.364;8.796;2023-06-26T01:36:35;17.90;85.80
17148;DHT22;8689;47.364;8.796;2023-06-26T01:39:04;17.70;86.30
17148;DHT22;8689;47.364;8.796;2023-06-26T01:41:32;17.70;87.10
17148;DHT22;8689;47.364;8.796;2023-06-26T01:44:16;17.70;87.20
17148;DHT22;8689;47.364;8.796;2023-06-26T01:46:52;17.60;87.70
17148;DHT22;8689;47.364;8.796;2023-06-26T01:49:28;17.50;87.90
17148;DHT22;8689;47.364;8.796;2023-06-26T01:52:09;17.40;88.80
17148;DHT22;8689;47.364;8.796;2023-06-26T01:54:42;17.30;89.20
17148;DHT22;8689;47.364;8.796;2023-06-26T01:57:20;17.30;89.40
17148;DHT22;8689;47.364;8.796;2023-06-26T01:59:50;17.40;89.50
17148;DHT22;8689;47.364;8.796;2023-06-26T02:02:18;17.30;89.90
17148;DHT22;8689;47.364;8.796;2023-06-26T02:04:46;17.30;90.30
17148;DHT22;8689;47.364;8.796;2023-06-26T02:07:14;17.20;90.80
17148;DHT22;8689;47.364;8.796;2023-06-26T02:09:42;17.20;90.90
17148;DHT22;8689;47.364;8.796;2023-06-26T02:12:10;17.10;91.20
17148;DHT22;8689;47.364;8.796;2023-06-26T02:14:39;17.10;91.70
17148;DHT22;8689;47.364;8.796;2023-06-26T02:17:07;17.00;92.10
17148;DHT22;8689;47.364;8.796;2023-06-26T02:19:34;17.00;92.90
17148;DHT22;8689;47.364;8.796;2023-06-26T02:22:02;16.90;93.40
17148;DHT22;8689;47.364;8.796;2023-06-26T02:24:29;16.90;94.10
17148;DHT22;8689;47.364;8.796;2023-06-26T02:26:58;16.90;95.00
17148;DHT22;8689;47.364;8.796;2023-06-26T02:29:25;16.90;95.20
17148;DHT22;8689;47.364;8.796;2023-06-26T02:31:54;16.80;95.70
17148;DHT22;8689;47.364;8.796;2023-06-26T02:34:22;16.80;96.90
17148;DHT22;8689;47.364;8.796;2023-06-26T02:36:49;16.80;98.10
17148;DHT22;8689;47.364;8.796;2023-06-26T02:39:20;16.70;99.10
17148;DHT22;8689;47.364;8.796;2023-06-26T02:41:49;16.60;99.90
17148;DHT22;8689;47.364;8.796;2023-06-26T02:44:17;16.60;99.90
17148;DHT22;8689;47.364;8.796;2023-06-26T02:46:45;16.60;99.90
17148;DHT22;8689;47.364;8.796;2023-06-26T02:49:14;16.50;99.90
17148;DHT22;8689;47.364;8.796;2023-06-26T02:51:42;16.50;99.90
17148;DHT22;8689;47.364;8.796;2023-06-26T02:54:09;16.50;99.90
17148;DHT22;8689;47.364;8.796;2023-06-26T02:56:37;16.40;99.90
17148;DHT22;8689;47.364;8.796;2023-06-26T02:59:05;16.40;99.90
17148;DHT22;8689;47.364;8.796;2023-06-26T03:01:32;16.40;99.90
17148;DHT22;8689;47.364;8.796;2023-06-26T03:04:00;16.50;99.90
17148;DHT22;8689;47.364;8.796;2023-06-26T03:06:29;16.40;99.90
17148;DHT22;8689;47.364;8.796;2023-06-26T03:08:56;16.40;99.90
17148;DHT22;8689;47.364;8.796;2023-06-26T03:11:24;16.40;99.90
17148;DHT22;8689;47.364;8.796;2023-06-26T03:13:52;16.40;99.90
17148;DHT22;8689;47.364;8.796;2023-06-26T03:16:20;16.30;99.90
17148;DHT22;8689;47.364;8.796;2023-06-26T03:18:48;16.20;99.90
17148;DHT22;8689;47.364;8.796;2023-06-26T03:21:17;16.20;99.90
17148;DHT22;8689;47.364;8.796;2023-06-26T03:23:47;16.20;99.90
17148;DHT22;8689;47.364;8.796;2023-06-26T03:26:14;16.20;99.90
17148;DHT22;8689;47.364;8.796;2023-06-26T03:28:42;16.20;99.90
17148;DHT22;8689;47.364;8.796;2023-06-26T03:31:10;16.20;99.90
17148;DHT22;8689;47.364;8.796;2023-06-26T03:33:38;16.20;99.90
17148;DHT22;8689;47.364;8.796;2023-06-26T03:36:07;16.20;99.90
17148;DHT22;8689;47.364;8.796;2023-06-26T03:38:35;16.20;99.90
17148;DHT22;8689;47.364;8.796;2023-06-26T03:41:05;16.20;99.90
17148;DHT22;8689;47.364;8.796;2023-06-26T03:43:32;16.30;99.90
17148;DHT22;8689;47.364;8.796;2023-06-26T03:45:59;16.30;99.90
17148;DHT22;8689;47.364;8.796;2023-06-26T03:48:27;16.40;99.90
17148;DHT22;8689;47.364;8.796;2023-06-26T03:50:55;16.40;99.90
17148;DHT22;8689;47.364;8.796;2023-06-26T03:53:23;16.30;99.90
17148;DHT22;8689;47.364;8.796;2023-06-26T03:55:52;16.40;99.90
17148;DHT22;8689;47.364;8.796;2023-06-26T03:58:21;16.40;99.90
17148;DHT22;8689;47.364;8.796;2023-06-26T04:00:49;16.40;99.90
17148;DHT22;8689;47.364;8.796;2023-06-26T04:03:16;16.50;99.90
17148;DHT22;8689;47.364;8.796;2023-06-26T04:05:44;16.50;99.90
17148;DHT22;8689;47.364;8.796;2023-06-26T04:08:12;16.50;99.90
17148;DHT22;8689;47.364;8.796;2023-06-26T04:10:40;16.50;99.90
17148;DHT22;8689;47.364;8.796;2023-06-26T04:13:09;16.50;99.90
17148;DHT22;8689;47.364;8.796;2023-06-26T04:15:38;16.50;99.90
17148;DHT22;8689;47.364;8.796;2023-06-26T04:18:08;16.50;99.90
17148;DHT22;8689;47.364;8.796;2023-06-26T04:20:39;16.60;99.90
17148;DHT22;8689;47.364;8.796;2023-06-26T04:23:06;16.60;99.90
17148;DHT22;8689;47.364;8.796;2023-06-26T04:25:38;16.60;99.90
17148;DHT22;8689;47.364;8.796;2023-06-26T04:28:06;16.70;99.90
17148;DHT22;8689;47.364;8.796;2023-06-26T04:30:56;16.70;99.90
17148;DHT22;8689;47.364;8.796;2023-06-26T04:33:24;16.70;99.90
17148;DHT22;8689;47.364;8.796;2023-06-26T04:35:52;16.70;99.90
17148;DHT22;8689;47.364;8.796;2023-06-26T04:38:19;16.70;99.90
17148;DHT22;8689;47.364;8.796;2023-06-26T04:40:47;16.70;99.90
17148;DHT22;8689;47.364;8.796;2023-06-26T04:43:14;16.70;99.90
17148;DHT22;8689;47.364;8.796;2023-06-26T04:45:42;16.80;99.90
17148;DHT22;8689;47.364;8.796;2023-06-26T04:48:11;16.90;99.90
17148;DHT22;8689;47.364;8.796;2023-06-26T04:50:39;16.90;99.90
17148;DHT22;8689;47.364;8.796;2023-06-26T04:53:07;17.00;99.90
17148;DHT22;8689;47.364;8.796;2023-06-26T04:55:36;17.00;99.90
17148;DHT22;8689;47.364;8.796;2023-06-26T04:58:04;17.00;99.90
17148;DHT22;8689;47.364;8.796;2023-06-26T05:00:31;17.10;99.90
17148;DHT22;8689;47.364;8.796;2023-06-26T05:03:02;17.00;99.90
17148;DHT22;8689;47.364;8.796;2023-06-26T05:05:46;17.00;99.90
17148;DHT22;8689;47.364;8.796;2023-06-26T05:08:15;17.10;99.90
17148;DHT22;8689;47.364;8.796;2023-06-26T05:10:45;17.30;99.90
17148;DHT22;8689;47.364;8.796;2023-06-26T05:13:49;17.30;99.90
17148;DHT22;8689;47.364;8.796;2023-06-26T05:16:33;17.40;99.90
17148;DHT22;8689;47.364;8.796;2023-06-26T05:19:04;17.50;99.90
17148;DHT22;8689;47.364;8.796;2023-06-26T05:21:35;17.50;99.90
17148;DHT22;8689;47.364;8.796;2023-06-26T05:24:03;17.60;99.90
17148;DHT22;8689;47.364;8.796;2023-06-26T05:26:31;17.70;99.90
17148;DHT22;8689;47.364;8.796;2023-06-26T05:28:59;17.70;99.90
17148;DHT22;8689;47.364;8.796;2023-06-26T05:31:27;17.80;99.90
17148;DHT22;8689;47.364;8.796;2023-06-26T05:33:56;17.90;99.90
17148;DHT22;8689;47.364;8.796;2023-06-26T05:36:28;18.00;99.90
17148;DHT22;8689;47.364;8.796;2023-06-26T05:38:59;18.20;99.90
17148;DHT22;8689;47.364;8.796;2023-06-26T05:41:29;18.40;99.90
17148;DHT22;8689;47.364;8.796;2023-06-26T05:43:58;18.50;99.90
17148;DHT22;8689;47.364;8.796;2023-06-26T05:46:29;18.70;99.90
17148;DHT22;8689;47.364;8.796;2023-06-26T05:48:58;19.00;99.90
17148;DHT22;8689;47.364;8.796;2023-06-26T05:51:48;19.80;99.90
17148;DHT22;8689;47.364;8.796;2023-06-26T05:54:48;20.70;99.90
17148;DHT22;8689;47.364;8.796;2023-06-26T05:57:32;21.80;99.90
17148;DHT22;8689;47.364;8.796;2023-06-26T06:00:09;22.70;99.90
17148;DHT22;8689;47.364;8.796;2023-06-26T06:03:02;23.40;97.70
17148;DHT22;8689;47.364;8.796;2023-06-26T09:17:24;31.60;45.80
17148;DHT22;8689;47.364;8.796;2023-06-26T09:20:47;31.70;47.90
17148;DHT22;8689;47.364;8.796;2023-06-26T09:23:50;31.70;45.60
17148;DHT22;8689;47.364;8.796;2023-06-26T09:26:45;31.70;45.20
17148;DHT22;8689;47.364;8.796;2023-06-26T09:32:31;31.70;45.60
17148;DHT22;8689;47.364;8.796;2023-06-26T09:35:06;31.70;48.00
17148;DHT22;8689;47.364;8.796;2023-06-26T09:37:34;31.80;47.30
17148;DHT22;8689;47.364;8.796;2023-06-26T09:42:47;32.10;46.20
17148;DHT22;8689;47.364;8.796;2023-06-26T09:45:18;32.30;45.30
17148;DHT22;8689;47.364;8.796;2023-06-26T09:48:32;32.30;44.80
17148;DHT22;8689;47.364;8.796;2023-06-26T09:51:08;32.20;45.80
17148;DHT22;8689;47.364;8.796;2023-06-26T09:53:52;32.20;47.00
17148;DHT22;8689;47.364;8.796;2023-06-26T09:56:19;32.30;44.90
17148;DHT22;8689;47.364;8.796;2023-06-26T10:05:57;32.70;44.40
17148;DHT22;8689;47.364;8.796;2023-06-26T10:08:26;32.90;44.50
17148;DHT22;8689;47.364;8.796;2023-06-26T10:10:54;33.00;44.00
17148;DHT22;8689;47.364;8.796;2023-06-26T10:13:24;33.00;44.00
17148;DHT22;8689;47.364;8.796;2023-06-26T10:15:55;33.00;42.60
17148;DHT22;8689;47.364;8.796;2023-06-26T10:18:25;32.90;43.40
17148;DHT22;8689;47.364;8.796;2023-06-26T10:20:57;32.90;43.20
17148;DHT22;8689;47.364;8.796;2023-06-26T10:23:28;32.80;42.10
17148;DHT22;8689;47.364;8.796;2023-06-26T10:25:59;32.80;43.80
17148;DHT22;8689;47.364;8.796;2023-06-26T10:28:29;32.90;43.70
17148;DHT22;8689;47.364;8.796;2023-06-26T10:31:01;33.10;44.30
17148;DHT22;8689;47.364;8.796;2023-06-26T10:33:45;33.40;41.40
17148;DHT22;8689;47.364;8.796;2023-06-26T10:36:16;33.40;42.80
17148;DHT22;8689;47.364;8.796;2023-06-26T10:38:51;33.60;42.60
17148;DHT22;8689;47.364;8.796;2023-06-26T10:41:23;33.70;41.40
17148;DHT22;8689;47.364;8.796;2023-06-26T10:43:51;33.80;41.10
17148;DHT22;8689;47.364;8.796;2023-06-26T10:46:27;33.90;41.60
17148;DHT22;8689;47.364;8.796;2023-06-26T10:49:00;33.90;40.40
17148;DHT22;8689;47.364;8.796;2023-06-26T10:51:56;33.90;41.00
17148;DHT22;8689;47.364;8.796;2023-06-26T10:54:31;33.80;40.90
17148;DHT22;8689;47.364;8.796;2023-06-26T10:56:59;33.60;40.10
17148;DHT22;8689;47.364;8.796;2023-06-26T10:59:30;33.60;42.10
17148;DHT22;8689;47.364;8.796;2023-06-26T11:01:59;33.70;42.10
17148;DHT22;8689;47.364;8.796;2023-06-26T11:04:38;34.00;42.50
17148;DHT22;8689;47.364;8.796;2023-06-26T11:07:19;34.20;39.60
17148;DHT22;8689;47.364;8.796;2023-06-26T11:09:55;34.10;40.20
17148;DHT22;8689;47.364;8.796;2023-06-26T11:12:41;34.20;40.10
17148;DHT22;8689;47.364;8.796;2023-06-26T11:15:09;34.40;39.80
17148;DHT22;8689;47.364;8.796;2023-06-26T11:17:37;34.60;40.00
17148;DHT22;8689;47.364;8.796;2023-06-26T11:20:05;34.80;39.90
17148;DHT22;8689;47.364;8.796;2023-06-26T11:22:37;35.20;38.70
17148;DHT22;8689;47.364;8.796;2023-06-26T11:25:06;35.50;38.40
17148;DHT22;8689;47.364;8.796;2023-06-26T11:27:38;35.60;37.90
17148;DHT22;8689;47.364;8.796;2023-06-26T11:30:07;35.40;37.20
17148;DHT22;8689;47.364;8.796;2023-06-26T11:32:35;35.00;37.70
17148;DHT22;8689;47.364;8.796;2023-06-26T11:35:03;35.10;37.40
17148;DHT22;8689;47.364;8.796;2023-06-26T11:37:31;35.10;37.50
17148;DHT22;8689;47.364;8.796;2023-06-26T11:40:16;35.10;37.70
17148;DHT22;8689;47.364;8.796;2023-06-26T11:42:46;34.90;37.40
17148;DHT22;8689;47.364;8.796;2023-06-26T11:45:14;34.60;39.00
17148;DHT22;8689;47.364;8.796;2023-06-26T11:47:41;34.10;39.60
17148;DHT22;8689;47.364;8.796;2023-06-26T11:50:15;33.60;40.80
17148;DHT22;8689;47.364;8.796;2023-06-26T11:52:44;33.90;40.30
17148;DHT22;8689;47.364;8.796;2023-06-26T11:55:13;34.30;39.70
17148;DHT22;8689;47.364;8.796;2023-06-26T11:57:40;34.30;39.80
17148;DHT22;8689;47.364;8.796;2023-06-26T12:00:11;33.70;40.90
17148;DHT22;8689;47.364;8.796;2023-06-26T12:02:38;33.00;41.00
17148;DHT22;8689;47.364;8.796;2023-06-26T12:05:06;33.10;41.10
17148;DHT22;8689;47.364;8.796;2023-06-26T12:07:34;33.70;42.00
17148;DHT22;8689;47.364;8.796;2023-06-26T12:10:04;34.50;40.40
17148;DHT22;8689;47.364;8.796;2023-06-26T12:12:34;35.20;39.30
17148;DHT22;8689;47.364;8.796;2023-06-26T12:15:01;35.70;36.40
17148;DHT22;8689;47.364;8.796;2023-06-26T12:17:28;35.40;37.90
17148;DHT22;8689;47.364;8.796;2023-06-26T12:19:56;34.80;39.70
17148;DHT22;8689;47.364;8.796;2023-06-26T12:22:48;34.90;39.50
17148;DHT22;8689;47.364;8.796;2023-06-26T12:25:51;35.10;39.60
17148;DHT22;8689;47.364;8.796;2023-06-26T12:28:38;35.80;39.10
17148;DHT22;8689;47.364;8.796;2023-06-26T12:31:15;36.60;36.60
17148;DHT22;8689;47.364;8.796;2023-06-26T12:33:43;37.00;37.50
17148;DHT22;8689;47.364;8.796;2023-06-26T12:36:12;36.60;38.60
17148;DHT22;8689;47.364;8.796;2023-06-26T12:38:41;36.60;39.40
17148;DHT22;8689;47.364;8.796;2023-06-26T12:41:15;36.30;39.40
17148;DHT22;8689;47.364;8.796;2023-06-26T12:43:56;36.30;40.40
17148;DHT22;8689;47.364;8.796;2023-06-26T12:46:38;36.30;40.60
17148;DHT22;8689;47.364;8.796;2023-06-26T12:49:05;36.30;38.90
17148;DHT22;8689;47.364;8.796;2023-06-26T12:51:33;35.50;39.50
17148;DHT22;8689;47.364;8.796;2023-06-26T12:54:15;34.60;39.70
17148;DHT22;8689;47.364;8.796;2023-06-26T12:56:52;33.70;43.80
17148;DHT22;8689;47.364;8.796;2023-06-26T12:59:22;33.00;45.00
17148;DHT22;8689;47.364;8.796;2023-06-26T13:01:54;32.40;47.40
17148;DHT22;8689;47.364;8.796;2023-06-26T13:04:26;31.90;48.80
17148;DHT22;8689;47.364;8.796;2023-06-26T13:06:58;31.50;49.60
17148;DHT22;8689;47.364;8.796;2023-06-26T13:09:32;31.90;49.10
17148;DHT22;8689;47.364;8.796;2023-06-26T13:12:01;32.40;48.60
17148;DHT22;8689;47.364;8.796;2023-06-26T13:14:51;32.90;47.90
17148;DHT22;8689;47.364;8.796;2023-06-26T13:17:33;33.80;47.30
17148;DHT22;8689;47.364;8.796;2023-06-26T13:20:00;34.70;45.50
17148;DHT22;8689;47.364;8.796;2023-06-26T13:22:27;34.50;45.30
17148;DHT22;8689;47.364;8.796;2023-06-26T13:24:55;34.50;45.20
17148;DHT22;8689;47.364;8.796;2023-06-26T13:27:23;34.70;45.00
17148;DHT22;8689;47.364;8.796;2023-06-26T13:29:52;34.40;46.00
17148;DHT22;8689;47.364;8.796;2023-06-26T13:32:20;34.40;45.90
17148;DHT22;8689;47.364;8.796;2023-06-26T13:34:47;34.20;45.00
17148;DHT22;8689;47.364;8.796;2023-06-26T13:40:08;33.10;46.30
17148;DHT22;8689;47.364;8.796;2023-06-26T13:42:37;32.50;46.90
17148;DHT22;8689;47.364;8.796;2023-06-26T13:45:08;32.10;46.40
17148;DHT22;8689;47.364;8.796;2023-06-26T13:48:02;32.30;47.40
17148;DHT22;8689;47.364;8.796;2023-06-26T13:50:59;32.20;46.70
17148;DHT22;8689;47.364;8.796;2023-06-26T13:53:27;31.60;47.60
17148;DHT22;8689;47.364;8.796;2023-06-26T13:55:55;31.40;48.70
17148;DHT22;8689;47.364;8.796;2023-06-26T13:58:22;31.40;49.20
17148;DHT22;8689;47.364;8.796;2023-06-26T14:00:55;31.80;48.90
17148;DHT22;8689;47.364;8.796;2023-06-26T14:03:50;32.50;46.70
17148;DHT22;8689;47.364;8.796;2023-06-26T14:06:36;33.50;45.40
17148;DHT22;8689;47.364;8.796;2023-06-26T14:09:18;33.70;43.70
17148;DHT22;8689;47.364;8.796;2023-06-26T14:12:02;33.40;44.50
17148;DHT22;8689;47.364;8.796;2023-06-26T14:14:29;32.50;44.50
17148;DHT22;8689;47.364;8.796;2023-06-26T14:16:58;31.90;45.80
17148;DHT22;8689;47.364;8.796;2023-06-26T14:19:26;31.80;46.80
17148;DHT22;8689;47.364;8.796;2023-06-26T14:21:54;32.00;46.60
17148;DHT22;8689;47.364;8.796;2023-06-26T14:24:43;32.70;44.90
17148;DHT22;8689;47.364;8.796;2023-06-26T14:27:13;33.60;44.30
17148;DHT22;8689;47.364;8.796;2023-06-26T14:29:40;33.80;43.90
17148;DHT22;8689;47.364;8.796;2023-06-26T14:32:09;34.20;43.40
17148;DHT22;8689;47.364;8.796;2023-06-26T14:34:36;34.80;42.40
17148;DHT22;8689;47.364;8.796;2023-06-26T14:37:05;35.10;41.90
17148;DHT22;8689;47.364;8.796;2023-06-26T14:39:58;35.30;41.90
17148;DHT22;8689;47.364;8.796;2023-06-26T14:42:36;35.80;40.10
17148;DHT22;8689;47.364;8.796;2023-06-26T14:45:05;35.90;40.10
17148;DHT22;8689;47.364;8.796;2023-06-26T14:47:34;35.90;39.30
17148;DHT22;8689;47.364;8.796;2023-06-26T14:50:02;36.00;39.90
17148;DHT22;8689;47.364;8.796;2023-06-26T14:52:33;35.90;40.20
17148;DHT22;8689;47.364;8.796;2023-06-26T14:55:01;35.90;39.70
17148;DHT22;8689;47.364;8.796;2023-06-26T14:57:29;35.80;39.90
17148;DHT22;8689;47.364;8.796;2023-06-26T14:59:56;35.80;38.80
17148;DHT22;8689;47.364;8.796;2023-06-26T15:02:24;36.00;39.10
17148;DHT22;8689;47.364;8.796;2023-06-26T15:04:55;36.20;38.90
17148;DHT22;8689;47.364;8.796;2023-06-26T15:07:28;36.40;38.40
17148;DHT22;8689;47.364;8.796;2023-06-26T15:09:56;36.30;38.60
17148;DHT22;8689;47.364;8.796;2023-06-26T15:13:00;36.10;37.80
17148;DHT22;8689;47.364;8.796;2023-06-26T15:15:30;36.00;38.40
17148;DHT22;8689;47.364;8.796;2023-06-26T15:17:58;35.90;38.80
17148;DHT22;8689;47.364;8.796;2023-06-26T15:20:28;35.50;39.60
17148;DHT22;8689;47.364;8.796;2023-06-26T15:22:55;35.10;40.60
17148;DHT22;8689;47.364;8.796;2023-06-26T15:25:23;34.90;41.20
17148;DHT22;8689;47.364;8.796;2023-06-26T15:27:51;35.00;40.50
17148;DHT22;8689;47.364;8.796;2023-06-26T15:30:18;34.80;40.20
17148;DHT22;8689;47.364;8.796;2023-06-26T15:32:46;34.50;40.40
17148;DHT22;8689;47.364;8.796;2023-06-26T15:35:14;34.40;40.10
17148;DHT22;8689;47.364;8.796;2023-06-26T15:38:06;33.80;40.30
17148;DHT22;8689;47.364;8.796;2023-06-26T15:40:34;32.60;42.30
17148;DHT22;8689;47.364;8.796;2023-06-26T15:43:01;31.90;42.70
17148;DHT22;8689;47.364;8.796;2023-06-26T15:45:29;31.50;43.50
17148;DHT22;8689;47.364;8.796;2023-06-26T15:47:57;31.10;44.00
17148;DHT22;8689;47.364;8.796;2023-06-26T15:50:24;31.00;44.10
17148;DHT22;8689;47.364;8.796;2023-06-26T15:52:54;31.00;43.90
17148;DHT22;8689;47.364;8.796;2023-06-26T15:55:23;31.40;43.20
17148;DHT22;8689;47.364;8.796;2023-06-26T15:57:51;32.30;41.90
17148;DHT22;8689;47.364;8.796;2023-06-26T16:00:20;32.90;40.50
17148;DHT22;8689;47.364;8.796;2023-06-26T16:02:49;33.40;40.40
17148;DHT22;8689;47.364;8.796;2023-06-26T16:05:24;33.60;39.60
17148;DHT22;8689;47.364;8.796;2023-06-26T16:07:51;33.80;39.80
17148;DHT22;8689;47.364;8.796;2023-06-26T16:10:18;33.90;38.90
17148;DHT22;8689;47.364;8.796;2023-06-26T16:12:48;33.60;38.60
17148;DHT22;8689;47.364;8.796;2023-06-26T16:15:17;32.50;40.20
17148;DHT22;8689;47.364;8.796;2023-06-26T16:17:48;32.10;41.30
17148;DHT22;8689;47.364;8.796;2023-06-26T16:20:16;31.70;39.60
17148;DHT22;8689;47.364;8.796;2023-06-26T16:22:45;31.40;42.10
17148;DHT22;8689;47.364;8.796;2023-06-26T16:25:14;31.20;39.90
17148;DHT22;8689;47.364;8.796;2023-06-26T16:27:41;30.90;40.10
17148;DHT22;8689;47.364;8.796;2023-06-26T16:30:16;30.50;40.40
17148;DHT22;8689;47.364;8.796;2023-06-26T16:32:43;30.20;41.40
17148;DHT22;8689;47.364;8.796;2023-06-26T16:35:12;29.80;41.90
17148;DHT22;8689;47.364;8.796;2023-06-26T16:37:40;29.40;41.80
17148;DHT22;8689;47.364;8.796;2023-06-26T16:40:08;28.90;43.60
17148;DHT22;8689;47.364;8.796;2023-06-26T16:42:35;28.60;45.50
17148;DHT22;8689;47.364;8.796;2023-06-26T16:45:03;28.40;46.20
17148;DHT22;8689;47.364;8.796;2023-06-26T16:47:33;28.20;46.60
17148;DHT22;8689;47.364;8.796;2023-06-26T16:50:02;28.10;47.30
17148;DHT22;8689;47.364;8.796;2023-06-26T16:52:29;28.20;46.40
17148;DHT22;8689;47.364;8.796;2023-06-26T16:54:59;28.20;47.10
17148;DHT22;8689;47.364;8.796;2023-06-26T16:57:27;28.30;48.20
17148;DHT22;8689;47.364;8.796;2023-06-26T17:00:03;28.30;47.10
17148;DHT22;8689;47.364;8.796;2023-06-26T17:02:34;28.20;47.30
17148;DHT22;8689;47.364;8.796;2023-06-26T17:05:05;28.10;47.10
17148;DHT22;8689;47.364;8.796;2023-06-26T17:07:33;28.00;47.70
17148;DHT22;8689;47.364;8.796;2023-06-26T17:10:01;27.90;47.90
17148;DHT22;8689;47.364;8.796;2023-06-26T17:12:30;28.00;48.30
17148;DHT22;8689;47.364;8.796;2023-06-26T17:14:58;28.00;49.00
17148;DHT22;8689;47.364;8.796;2023-06-26T17:17:26;27.90;49.50
17148;DHT22;8689;47.364;8.796;2023-06-26T17:19:55;27.70;50.20
17148;DHT22;8689;47.364;8.796;2023-06-26T17:22:23;27.60;49.90
17148;DHT22;8689;47.364;8.796;2023-06-26T17:24:50;27.50;51.20
17148;DHT22;8689;47.364;8.796;2023-06-26T17:27:19;27.30;51.00
17148;DHT22;8689;47.364;8.796;2023-06-26T17:29:53;27.20;51.60
17148;DHT22;8689;47.364;8.796;2023-06-26T17:32:20;27.30;52.10
17148;DHT22;8689;47.364;8.796;2023-06-26T17:34:48;27.30;51.90
17148;DHT22;8689;47.364;8.796;2023-06-26T17:37:17;27.30;52.30
17148;DHT22;8689;47.364;8.796;2023-06-26T17:39:44;27.20;52.30
17148;DHT22;8689;47.364;8.796;2023-06-26T17:42:11;27.10;53.00
17148;DHT22;8689;47.364;8.796;2023-06-26T17:44:39;27.10;53.20
17148;DHT22;8689;47.364;8.796;2023-06-26T17:47:11;26.90;53.80
17148;DHT22;8689;47.364;8.796;2023-06-26T17:49:46;26.70;53.90
17148;DHT22;8689;47.364;8.796;2023-06-26T17:52:29;26.50;54.90
17148;DHT22;8689;47.364;8.796;2023-06-26T17:55:26;26.40;54.60
17148;DHT22;8689;47.364;8.796;2023-06-26T17:57:58;26.20;55.30
17148;DHT22;8689;47.364;8.796;2023-06-26T18:00:28;26.10;55.80
17148;DHT22;8689;47.364;8.796;2023-06-26T18:02:56;25.90;55.50
17148;DHT22;8689;47.364;8.796;2023-06-26T18:05:23;25.80;56.40
17148;DHT22;8689;47.364;8.796;2023-06-26T18:07:53;25.80;55.80
17148;DHT22;8689;47.364;8.796;2023-06-26T18:10:20;25.70;56.00
17148;DHT22;8689;47.364;8.796;2023-06-26T18:12:48;25.60;55.90
17148;DHT22;8689;47.364;8.796;2023-06-26T18:15:18;25.50;56.20
17148;DHT22;8689;47.364;8.796;2023-06-26T18:17:56;25.40;56.90
17148;DHT22;8689;47.364;8.796;2023-06-26T18:20:24;25.30;56.10
17148;DHT22;8689;47.364;8.796;2023-06-26T18:22:53;25.30;56.10
17148;DHT22;8689;47.364;8.796;2023-06-26T18:25:23;25.30;56.80
17148;DHT22;8689;47.364;8.796;2023-06-26T18:27:50;25.30;56.10
17148;DHT22;8689;47.364;8.796;2023-06-26T18:30:20;25.30;56.10
17148;DHT22;8689;47.364;8.796;2023-06-26T18:32:49;25.30;56.10
17148;DHT22;8689;47.364;8.796;2023-06-26T18:35:17;25.20;56.00
17148;DHT22;8689;47.364;8.796;2023-06-26T18:37:44;25.10;56.00
17148;DHT22;8689;47.364;8.796;2023-06-26T18:40:14;25.00;55.90
17148;DHT22;8689;47.364;8.796;2023-06-26T18:42:42;24.90;55.80
17148;DHT22;8689;47.364;8.796;2023-06-26T18:45:11;24.90;55.80
17148;DHT22;8689;47.364;8.796;2023-06-26T18:47:38;24.80;55.80
17148;DHT22;8689;47.364;8.796;2023-06-26T18:50:07;24.60;55.60
17148;DHT22;8689;47.364;8.796;2023-06-26T18:52:34;24.60;55.70
17148;DHT22;8689;47.364;8.796;2023-06-26T18:55:02;24.50;56.50
17148;DHT22;8689;47.364;8.796;2023-06-26T18:57:31;24.40;56.30
17148;DHT22;8689;47.364;8.796;2023-06-26T19:00:00;24.30;56.80
17148;DHT22;8689;47.364;8.796;2023-06-26T19:02:27;24.30;56.70
17148;DHT22;8689;47.364;8.796;2023-06-26T19:04:55;24.20;56.80
17148;DHT22;8689;47.364;8.796;2023-06-26T19:07:47;24.10;56.90
17148;DHT22;8689;47.364;8.796;2023-06-26T19:10:25;24.10;57.30
17148;DHT22;8689;47.364;8.796;2023-06-26T19:12:54;24.00;57.60
17148;DHT22;8689;47.364;8.796;2023-06-26T19:15:23;24.00;57.40
17148;DHT22;8689;47.364;8.796;2023-06-26T19:17:51;23.90;58.20
17148;DHT22;8689;47.364;8.796;2023-06-26T19:20:19;23.90;57.30
17148;DHT22;8689;47.364;8.796;2023-06-26T19:23:12;23.80;57.20
17148;DHT22;8689;47.364;8.796;2023-06-26T19:25:55;23.80;57.70
17148;DHT22;8689;47.364;8.796;2023-06-26T19:28:24;23.70;58.60
17148;DHT22;8689;47.364;8.796;2023-06-26T19:30:52;23.70;57.70
17148;DHT22;8689;47.364;8.796;2023-06-26T19:33:19;23.60;57.60
17148;DHT22;8689;47.364;8.796;2023-06-26T19:35:47;23.60;57.80
17148;DHT22;8689;47.364;8.796;2023-06-26T19:38:14;23.60;58.00
17148;DHT22;8689;47.364;8.796;2023-06-26T19:40:41;23.60;58.40